sensor_id;sensor_type;location;lat;lon;timestamp;pressure;altitude;pressure_sealevel;temperature;humidity
9774;BME280;4926;42.670;23.316;2023-04-25T00:01:48;93811.53;;;11.70;100.00
9774;BME280;4926;42.670;23.316;2023-04-25T00:04:18;93800.03;;;11.52;100.00
9774;BME280;4926;42.670;23.316;2023-04-25T00:06:44;93793.22;;;11.38;100.00
9774;BME280;4926;42.670;23.316;2023-04-25T00:09:14;93782.56;;;11.38;100.00
9774;BME280;4926;42.670;23.316;2023-04-25T00:11:43;93776.59;;;11.23;100.00
9774;BME280;4926;42.670;23.316;2023-04-25T00:14:10;93766.88;;;11.19;100.00
9774;BME280;4926;42.670;23.316;2023-04-25T00:16:37;93760.56;;;11.15;100.00
9774;BME280;4926;42.670;23.316;2023-04-25T00:19:06;93748.00;;;10.98;100.00
9774;BME280;4926;42.670;23.316;2023-04-25T00:21:36;93749.53;;;10.91;100.00
9774;BME280;4926;42.670;23.316;2023-04-25T00:24:06;93746.22;;;10.85;100.00
9774;BME280;4926;42.670;23.316;2023-04-25T00:26:33;93740.38;;;10.75;100.00
9774;BME280;4926;42.670;23.316;2023-04-25T00:29:00;93746.19;;;10.77;100.00
9774;BME280;4926;42.670;23.316;2023-04-25T00:31:27;93745.91;;;10.87;100.00
9774;BME280;4926;42.670;23.316;2023-04-25T00:33:54;93752.06;;;10.96;100.00
9774;BME280;4926;42.670;23.316;2023-04-25T00:36:23;93754.03;;;10.82;100.00
9774;BME280;4926;42.670;23.316;2023-04-25T00:38:52;93746.25;;;10.94;100.00
9774;BME280;4926;42.670;23.316;2023-04-25T00:41:19;93744.13;;;11.13;100.00
9774;BME280;4926;42.670;23.316;2023-04-25T00:43:47;93740.72;;;11.21;100.00
9774;BME280;4926;42.670;23.316;2023-04-25T00:46:17;93737.63;;;10.97;100.00
9774;BME280;4926;42.670;23.316;2023-04-25T00:48:43;93745.03;;;11.00;100.00
9774;BME280;4926;42.670;23.316;2023-04-25T00:51:14;93753.22;;;11.20;100.00
9774;BME280;4926;42.670;23.316;2023-04-25T00:53:42;93745.09;;;11.34;100.00
9774;BME280;4926;42.670;23.316;2023-04-25T00:56:10;93750.75;;;11.41;100.00
9774;BME280;4926;42.670;23.316;2023-04-25T00:58:40;93758.00;;;11.49;100.00
9774;BME280;4926;42.670;23.316;2023-04-25T01:01:10;93741.88;;;11.54;100.00
9774;BME280;4926;42.670;23.316;2023-04-25T01:03:38;93737.00;;;11.56;100.00
9774;BME280;4926;42.670;23.316;2023-04-25T01:06:09;93729.31;;;11.55;100.00
9774;BME280;4926;42.670;23.316;2023-04-25T01:08:38;93720.25;;;11.73;100.00
9774;BME280;4926;42.670;23.316;2023-04-25T01:11:06;93718.03;;;11.58;100.00
9774;BME280;4926;42.670;23.316;2023-04-25T01:13:34;93706.72;;;11.35;100.00
9774;BME280;4926;42.670;23.316;2023-04-25T01:16:04;93719.09;;;11.48;100.00
9774;BME280;4926;42.670;23.316;2023-04-25T01:18:31;93713.31;;;11.55;100.00
9774;BME280;4926;42.670;23.316;2023-04-25T01:21:05;93709.09;;;11.62;100.00
9774;BME280;4926;42.670;23.316;2023-04-25T01:23:33;93716.28;;;11.62;100.00
9774;BME280;4926;42.670;23.316;2023-04-25T01:26:00;93701.88;;;11.46;100.00
9774;BME280;4926;42.670;23.316;2023-04-25T01:28:27;93706.72;;;11.44;100.00
9774;BME280;4926;42.670;23.316;2023-04-25T01:30:56;93708.13;;;11.24;100.00
9774;BME280;4926;42.670;23.316;2023-04-25T01:33:24;93699.34;;;11.32;100.00
9774;BME280;4926;42.670;23.316;2023-04-25T01:35:50;93703.41;;;11.21;100.00
9774;BME280;4926;42.670;23.316;2023-04-25T01:38:19;93704.19;;;11.21;100.00
9774;BME280;4926;42.670;23.316;2023-04-25T01:40:49;93727.69;;;11.19;100.00
9774;BME280;4926;42.670;23.316;2023-04-25T01:43:18;93717.28;;;10.92;100.00
9774;BME280;4926;42.670;23.316;2023-04-25T01:45:48;93717.28;;;11.01;100.00
9774;BME280;4926;42.670;23.316;2023-04-25T01:48:15;93716.25;;;11.19;100.00
9774;BME280;4926;42.670;23.316;2023-04-25T01:50:42;93722.22;;;11.16;100.00
9774;BME280;4926;42.670;23.316;2023-04-25T01:53:09;93728.75;;;11.10;100.00
9774;BME280;4926;42.670;23.316;2023-04-25T01:55:38;93725.16;;;11.14;100.00
9774;BME280;4926;42.670;23.316;2023-04-25T01:58:08;93730.97;;;11.25;100.00
9774;BME280;4926;42.670;23.316;2023-04-25T02:00:38;93738.03;;;11.12;100.00
9774;BME280;4926;42.670;23.316;2023-04-25T02:03:07;93722.47;;;11.06;100.00
9774;BME280;4926;42.670;23.316;2023-04-25T02:05:35;93721.25;;;11.12;100.00
9774;BME280;4926;42.670;23.316;2023-04-25T02:08:09;93721.91;;;11.26;100.00
9774;BME280;4926;42.670;23.316;2023-04-25T02:10:36;93720.66;;;11.41;100.00
9774;BME280;4926;42.670;23.316;2023-04-25T02:13:04;93711.44;;;11.55;100.00
9774;BME280;4926;42.670;23.316;2023-04-25T02:15:31;93719.03;;;11.70;100.00
9774;BME280;4926;42.670;23.316;2023-04-25T02:17:57;93711.25;;;11.26;100.00
9774;BME280;4926;42.670;23.316;2023-04-25T02:20:25;93701.97;;;11.15;100.00
9774;BME280;4926;42.670;23.316;2023-04-25T02:22:53;93693.19;;;11.14;100.00
9774;BME280;4926;42.670;23.316;2023-04-25T02:25:20;93689.47;;;11.33;100.00
9774;BME280;4926;42.670;23.316;2023-04-25T02:27:47;93693.72;;;11.42;100.00
9774;BME280;4926;42.670;23.316;2023-04-25T02:30:15;93683.38;;;11.49;100.00
9774;BME280;4926;42.670;23.316;2023-04-25T02:32:43;93682.44;;;11.62;100.00
9774;BME280;4926;42.670;23.316;2023-04-25T02:35:10;93681.22;;;11.68;100.00
9774;BME280;4926;42.670;23.316;2023-04-25T02:37:38;93672.13;;;11.69;100.00
9774;BME280;4926;42.670;23.316;2023-04-25T02:40:06;93678.06;;;11.49;100.00
9774;BME280;4926;42.670;23.316;2023-04-25T02:42:33;93672.72;;;11.49;100.00
9774;BME280;4926;42.670;23.316;2023-04-25T02:45:05;93677.25;;;11.49;100.00
9774;BME280;4926;42.670;23.316;2023-04-25T02:47:36;93678.97;;;11.27;100.00
9774;BME280;4926;42.670;23.316;2023-04-25T02:50:07;93666.88;;;11.21;100.00
9774;BME280;4926;42.670;23.316;2023-04-25T02:52:33;93668.41;;;10.97;100.00
9774;BME280;4926;42.670;23.316;2023-04-25T02:55:00;93653.81;;;10.69;100.00
9774;BME280;4926;42.670;23.316;2023-04-25T02:57:32;93663.81;;;10.72;100.00
9774;BME280;4926;42.670;23.316;2023-04-25T02:59:58;93665.41;;;10.90;100.00
9774;BME280;4926;42.670;23.316;2023-04-25T03:02:25;93677.69;;;11.08;100.00
9774;BME280;4926;42.670;23.316;2023-04-25T03:04:53;93650.41;;;10.94;100.00
9774;BME280;4926;42.670;23.316;2023-04-25T03:07:20;93656.06;;;11.01;100.00
9774;BME280;4926;42.670;23.316;2023-04-25T03:09:46;93661.69;;;10.91;100.00
9774;BME280;4926;42.670;23.316;2023-04-25T03:12:16;93651.53;;;11.01;100.00
9774;BME280;4926;42.670;23.316;2023-04-25T03:14:42;93658.28;;;11.16;100.00
9774;BME280;4926;42.670;23.316;2023-04-25T03:17:09;93654.50;;;11.00;100.00
9774;BME280;4926;42.670;23.316;2023-04-25T03:19:36;93660.41;;;10.97;100.00
9774;BME280;4926;42.670;23.316;2023-04-25T03:22:05;93656.06;;;11.01;100.00
9774;BME280;4926;42.670;23.316;2023-04-25T03:24:32;93652.97;;;11.16;100.00
9774;BME280;4926;42.670;23.316;2023-04-25T03:26:58;93660.94;;;11.16;100.00
9774;BME280;4926;42.670;23.316;2023-04-25T03:29:25;93643.06;;;11.08;100.00
9774;BME280;4926;42.670;23.316;2023-04-25T03:31:53;93658.91;;;11.21;100.00
9774;BME280;4926;42.670;23.316;2023-04-25T03:34:20;93651.38;;;11.15;100.00
9774;BME280;4926;42.670;23.316;2023-04-25T03:36:47;93638.97;;;10.93;100.00
9774;BME280;4926;42.670;23.316;2023-04-25T03:39:15;93658.53;;;10.89;100.00
9774;BME280;4926;42.670;23.316;2023-04-25T03:41:44;93655.56;;;10.90;100.00
9774;BME280;4926;42.670;23.316;2023-04-25T03:44:12;93659.25;;;10.64;100.00
9774;BME280;4926;42.670;23.316;2023-04-25T03:46:42;93662.69;;;10.64;100.00
9774;BME280;4926;42.670;23.316;2023-04-25T03:49:12;93661.91;;;10.64;100.00
9774;BME280;4926;42.670;23.316;2023-04-25T03:51:42;93648.03;;;10.84;100.00
9774;BME280;4926;42.670;23.316;2023-04-25T03:54:12;93640.22;;;10.87;100.00
9774;BME280;4926;42.670;23.316;2023-04-25T03:56:44;93640.38;;;10.91;100.00
9774;BME280;4926;42.670;23.316;2023-04-25T03:59:11;93639.56;;;10.82;100.00
9774;BME280;4926;42.670;23.316;2023-04-25T04:01:45;93644.88;;;10.73;100.00
9774;BME280;4926;42.670;23.316;2023-04-25T04:04:12;93658.06;;;10.87;100.00
9774;BME280;4926;42.670;23.316;2023-04-25T04:06:38;93669.69;;;10.99;100.00
9774;BME280;4926;42.670;23.316;2023-04-25T04:09:05;93656.53;;;11.20;100.00
9774;BME280;4926;42.670;23.316;2023-04-25T04:11:36;93655.16;;;11.31;100.00
9774;BME280;4926;42.670;23.316;2023-04-25T04:14:09;93660.47;;;11.31;100.00
9774;BME280;4926;42.670;23.316;2023-04-25T04:16:38;93667.84;;;11.34;100.00
9774;BME280;4926;42.670;23.316;2023-04-25T04:19:05;93656.56;;;11.37;100.00
9774;BME280;4926;42.670;23.316;2023-04-25T04:21:31;93658.28;;;11.16;100.00
9774;BME280;4926;42.670;23.316;2023-04-25T04:24:04;93666.72;;;11.18;100.00
9774;BME280;4926;42.670;23.316;2023-04-25T04:26:32;93657.81;;;11.31;100.00
9774;BME280;4926;42.670;23.316;2023-04-25T04:29:01;93661.72;;;11.25;100.00
9774;BME280;4926;42.670;23.316;2023-04-25T04:31:29;93669.38;;;11.09;100.00
9774;BME280;4926;42.670;23.316;2023-04-25T04:33:57;93659.84;;;11.17;100.00
9774;BME280;4926;42.670;23.316;2023-04-25T04:36:24;93660.97;;;11.33;100.00
9774;BME280;4926;42.670;23.316;2023-04-25T04:38:51;93662.34;;;11.31;100.00
9774;BME280;4926;42.670;23.316;2023-04-25T04:41:19;93653.28;;;11.23;100.00
9774;BME280;4926;42.670;23.316;2023-04-25T04:43:46;93656.72;;;11.32;100.00
9774;BME280;4926;42.670;23.316;2023-04-25T04:46:15;93659.84;;;11.34;100.00
9774;BME280;4926;42.670;23.316;2023-04-25T04:48:45;93653.59;;;11.47;100.00
9774;BME280;4926;42.670;23.316;2023-04-25T04:51:14;93654.06;;;11.49;100.00
9774;BME280;4926;42.670;23.316;2023-04-25T04:53:40;93671.63;;;11.67;100.00
9774;BME280;4926;42.670;23.316;2023-04-25T04:56:07;93674.31;;;11.67;100.00
9774;BME280;4926;42.670;23.316;2023-04-25T04:58:39;93679.94;;;11.57;100.00
9774;BME280;4926;42.670;23.316;2023-04-25T05:01:06;93675.72;;;11.65;100.00
9774;BME280;4926;42.670;23.316;2023-04-25T05:03:32;93676.63;;;11.52;100.00
9774;BME280;4926;42.670;23.316;2023-04-25T05:06:05;93695.44;;;11.55;100.00
9774;BME280;4926;42.670;23.316;2023-04-25T05:08:38;93689.63;;;11.53;100.00
9774;BME280;4926;42.670;23.316;2023-04-25T05:11:07;93690.63;;;11.66;100.00
9774;BME280;4926;42.670;23.316;2023-04-25T05:13:39;93686.81;;;11.58;100.00
9774;BME280;4926;42.670;23.316;2023-04-25T05:16:09;93687.44;;;11.55;100.00
9774;BME280;4926;42.670;23.316;2023-04-25T05:18:53;93697.31;;;11.55;100.00
9774;BME280;4926;42.670;23.316;2023-04-25T05:21:29;93695.44;;;11.64;100.00
9774;BME280;4926;42.670;23.316;2023-04-25T05:23:56;93691.69;;;11.56;100.00
9774;BME280;4926;42.670;23.316;2023-04-25T05:26:26;93683.69;;;11.56;100.00
9774;BME280;4926;42.670;23.316;2023-04-25T05:28:59;93686.19;;;11.44;100.00
9774;BME280;4926;42.670;23.316;2023-04-25T05:31:26;93689.00;;;11.39;100.00
9774;BME280;4926;42.670;23.316;2023-04-25T05:33:53;93695.28;;;11.43;100.00
9774;BME280;4926;42.670;23.316;2023-04-25T05:36:23;93695.59;;;11.50;100.00
9774;BME280;4926;42.670;23.316;2023-04-25T05:38:57;93698.75;;;11.52;100.00
9774;BME280;4926;42.670;23.316;2023-04-25T05:41:24;93692.94;;;11.59;100.00
9774;BME280;4926;42.670;23.316;2023-04-25T05:43:58;93688.28;;;11.64;100.00
9774;BME280;4926;42.670;23.316;2023-04-25T05:46:25;93693.44;;;11.69;100.00
9774;BME280;4926;42.670;23.316;2023-04-25T05:48:51;93694.69;;;11.63;100.00
9774;BME280;4926;42.670;23.316;2023-04-25T05:51:19;93685.91;;;11.80;100.00
9774;BME280;4926;42.670;23.316;2023-04-25T05:53:46;93687.44;;;12.06;100.00
9774;BME280;4926;42.670;23.316;2023-04-25T05:56:17;93691.81;;;12.19;100.00
9774;BME280;4926;42.670;23.316;2023-04-25T05:58:43;93703.56;;;12.27;100.00
9774;BME280;4926;42.670;23.316;2023-04-25T06:01:13;93694.78;;;12.26;100.00
9774;BME280;4926;42.670;23.316;2023-04-25T06:03:40;93686.63;;;12.23;100.00
9774;BME280;4926;42.670;23.316;2023-04-25T06:06:11;93685.88;;;12.05;100.00
9774;BME280;4926;42.670;23.316;2023-04-25T06:08:40;93685.75;;;11.85;100.00
9774;BME280;4926;42.670;23.316;2023-04-25T06:11:07;93691.41;;;11.83;100.00
9774;BME280;4926;42.670;23.316;2023-04-25T06:13:37;93698.13;;;11.98;100.00
9774;BME280;4926;42.670;23.316;2023-04-25T06:16:10;93689.00;;;12.07;100.00
9774;BME280;4926;42.670;23.316;2023-04-25T06:18:40;93686.44;;;12.37;100.00
9774;BME280;4926;42.670;23.316;2023-04-25T06:21:06;93694.53;;;12.57;100.00
9774;BME280;4926;42.670;23.316;2023-04-25T06:23:35;93707.44;;;12.47;100.00
9774;BME280;4926;42.670;23.316;2023-04-25T06:26:04;93696.78;;;12.47;100.00
9774;BME280;4926;42.670;23.316;2023-04-25T06:28:31;93701.75;;;12.57;100.00
9774;BME280;4926;42.670;23.316;2023-04-25T06:31:01;93704.09;;;12.58;100.00
9774;BME280;4926;42.670;23.316;2023-04-25T06:33:31;93699.25;;;12.52;100.00
9774;BME280;4926;42.670;23.316;2023-04-25T06:35:57;93699.66;;;12.71;100.00
9774;BME280;4926;42.670;23.316;2023-04-25T06:38:26;93693.41;;;13.04;100.00
9774;BME280;4926;42.670;23.316;2023-04-25T06:40:52;93701.00;;;13.23;100.00
9774;BME280;4926;42.670;23.316;2023-04-25T06:43:25;93708.13;;;13.19;100.00
9774;BME280;4926;42.670;23.316;2023-04-25T06:45:58;93711.91;;;12.80;100.00
9774;BME280;4926;42.670;23.316;2023-04-25T06:48:28;93708.75;;;12.78;100.00
9774;BME280;4926;42.670;23.316;2023-04-25T06:50:57;93708.44;;;12.80;100.00
9774;BME280;4926;42.670;23.316;2023-04-25T06:53:23;93707.75;;;12.91;100.00
9774;BME280;4926;42.670;23.316;2023-04-25T06:55:50;93716.38;;;12.97;100.00
9774;BME280;4926;42.670;23.316;2023-04-25T06:58:17;93706.03;;;12.87;100.00
9774;BME280;4926;42.670;23.316;2023-04-25T07:00:46;93711.56;;;12.82;100.00
9774;BME280;4926;42.670;23.316;2023-04-25T07:03:15;93703.06;;;12.88;100.00
9774;BME280;4926;42.670;23.316;2023-04-25T07:05:46;93700.34;;;12.97;100.00
9774;BME280;4926;42.670;23.316;2023-04-25T07:08:13;93697.31;;;13.15;100.00
9774;BME280;4926;42.670;23.316;2023-04-25T07:10:40;93710.75;;;13.27;100.00
9774;BME280;4926;42.670;23.316;2023-04-25T07:13:06;93711.50;;;13.28;100.00
9774;BME280;4926;42.670;23.316;2023-04-25T07:15:33;93709.72;;;13.40;100.00
9774;BME280;4926;42.670;23.316;2023-04-25T07:18:00;93720.88;;;13.13;100.00
9774;BME280;4926;42.670;23.316;2023-04-25T07:20:30;93716.00;;;12.69;100.00
9774;BME280;4926;42.670;23.316;2023-04-25T07:22:59;93691.94;;;12.78;100.00
9774;BME280;4926;42.670;23.316;2023-04-25T07:25:26;93704.66;;;13.18;100.00
9774;BME280;4926;42.670;23.316;2023-04-25T07:27:55;93702.75;;;13.48;100.00
9774;BME280;4926;42.670;23.316;2023-04-25T07:30:21;93691.47;;;13.42;100.00
9774;BME280;4926;42.670;23.316;2023-04-25T07:32:48;93698.38;;;13.64;100.00
9774;BME280;4926;42.670;23.316;2023-04-25T07:35:18;93692.25;;;13.43;100.00
9774;BME280;4926;42.670;23.316;2023-04-25T07:37:44;93700.59;;;13.41;100.00
9774;BME280;4926;42.670;23.316;2023-04-25T07:40:15;93688.72;;;13.51;100.00
9774;BME280;4926;42.670;23.316;2023-04-25T07:42:42;93692.84;;;13.69;100.00
9774;BME280;4926;42.670;23.316;2023-04-25T07:45:09;93691.59;;;13.87;100.00
9774;BME280;4926;42.670;23.316;2023-04-25T07:47:39;93697.31;;;13.98;100.00
9774;BME280;4926;42.670;23.316;2023-04-25T07:50:06;93690.66;;;14.04;100.00
9774;BME280;4926;42.670;23.316;2023-04-25T07:52:33;93689.28;;;14.18;100.00
9774;BME280;4926;42.670;23.316;2023-04-25T07:55:03;93687.34;;;14.19;100.00
9774;BME280;4926;42.670;23.316;2023-04-25T07:57:36;93690.25;;;14.34;100.00
9774;BME280;4926;42.670;23.316;2023-04-25T08:00:04;93692.28;;;14.49;100.00
9774;BME280;4926;42.670;23.316;2023-04-25T08:02:34;93691.69;;;14.11;100.00
9774;BME280;4926;42.670;23.316;2023-04-25T08:05:01;93684.69;;;14.19;100.00
9774;BME280;4926;42.670;23.316;2023-04-25T08:07:34;93689.84;;;14.57;100.00
9774;BME280;4926;42.670;23.316;2023-04-25T08:10:05;93678.91;;;14.62;100.00
9774;BME280;4926;42.670;23.316;2023-04-25T08:12:36;93678.69;;;14.54;100.00
9774;BME280;4926;42.670;23.316;2023-04-25T08:15:05;93681.38;;;15.03;100.00
9774;BME280;4926;42.670;23.316;2023-04-25T08:17:31;93685.50;;;15.36;100.00
9774;BME280;4926;42.670;23.316;2023-04-25T08:20:07;93677.53;;;15.64;96.65
9774;BME280;4926;42.670;23.316;2023-04-25T08:22:35;93665.44;;;15.82;89.14
9774;BME280;4926;42.670;23.316;2023-04-25T08:25:02;93667.88;;;15.87;84.26
9774;BME280;4926;42.670;23.316;2023-04-25T08:27:29;93654.50;;;16.03;84.75
9774;BME280;4926;42.670;23.316;2023-04-25T08:29:59;93652.19;;;16.44;81.59
9774;BME280;4926;42.670;23.316;2023-04-25T08:32:26;93648.06;;;16.47;78.78
9774;BME280;4926;42.670;23.316;2023-04-25T08:34:52;93660.47;;;16.39;77.91
9774;BME280;4926;42.670;23.316;2023-04-25T08:37:23;93657.38;;;16.37;78.74
9774;BME280;4926;42.670;23.316;2023-04-25T08:39:50;93667.66;;;16.47;79.89
9774;BME280;4926;42.670;23.316;2023-04-25T08:42:21;93672.31;;;16.50;80.88
9774;BME280;4926;42.670;23.316;2023-04-25T08:44:48;93673.34;;;16.46;82.93
9774;BME280;4926;42.670;23.316;2023-04-25T08:47:18;93680.38;;;16.50;81.13
9774;BME280;4926;42.670;23.316;2023-04-25T08:49:47;93673.78;;;16.48;81.06
9774;BME280;4926;42.670;23.316;2023-04-25T08:52:15;93674.22;;;16.65;80.46
9774;BME280;4926;42.670;23.316;2023-04-25T08:54:48;93657.09;;;16.54;81.47
9774;BME280;4926;42.670;23.316;2023-04-25T08:57:16;93675.72;;;16.20;85.89
9774;BME280;4926;42.670;23.316;2023-04-25T08:59:46;93664.75;;;16.40;84.93
9774;BME280;4926;42.670;23.316;2023-04-25T09:02:13;93653.59;;;17.01;83.66
9774;BME280;4926;42.670;23.316;2023-04-25T09:04:46;93647.66;;;17.42;80.73
9774;BME280;4926;42.670;23.316;2023-04-25T09:07:13;93650.97;;;17.51;81.48
9774;BME280;4926;42.670;23.316;2023-04-25T09:09:43;93652.50;;;17.52;79.19
9774;BME280;4926;42.670;23.316;2023-04-25T09:12:15;93639.53;;;17.23;77.23
9774;BME280;4926;42.670;23.316;2023-04-25T09:14:42;93627.38;;;17.29;77.64
9774;BME280;4926;42.670;23.316;2023-04-25T09:17:09;93615.13;;;17.31;79.29
9774;BME280;4926;42.670;23.316;2023-04-25T09:19:36;93639.09;;;17.71;80.40
9774;BME280;4926;42.670;23.316;2023-04-25T09:22:07;93635.28;;;17.72;78.25
9774;BME280;4926;42.670;23.316;2023-04-25T09:24:35;93622.56;;;17.38;75.29
9774;BME280;4926;42.670;23.316;2023-04-25T09:27:05;93619.44;;;17.01;78.40
9774;BME280;4926;42.670;23.316;2023-04-25T09:29:34;93649.72;;;16.67;83.92
9774;BME280;4926;42.670;23.316;2023-04-25T09:32:22;93641.13;;;16.93;82.45
9774;BME280;4926;42.670;23.316;2023-04-25T09:34:51;93630.72;;;17.07;78.07
9774;BME280;4926;42.670;23.316;2023-04-25T09:37:20;93632.16;;;17.20;76.95
9774;BME280;4926;42.670;23.316;2023-04-25T09:39:48;93634.03;;;17.35;76.85
9774;BME280;4926;42.670;23.316;2023-04-25T09:42:20;93622.13;;;17.01;75.08
9774;BME280;4926;42.670;23.316;2023-04-25T09:44:51;93628.28;;;17.02;74.71
9774;BME280;4926;42.670;23.316;2023-04-25T09:47:18;93622.41;;;17.31;75.08
9774;BME280;4926;42.670;23.316;2023-04-25T09:49:49;93623.00;;;17.40;72.70
9774;BME280;4926;42.670;23.316;2023-04-25T09:52:17;93599.00;;;17.66;70.39
9774;BME280;4926;42.670;23.316;2023-04-25T09:54:48;93626.84;;;17.93;70.25
9774;BME280;4926;42.670;23.316;2023-04-25T09:57:17;93578.81;;;17.95;64.19
9774;BME280;4926;42.670;23.316;2023-04-25T09:59:45;93575.03;;;17.80;63.25
9774;BME280;4926;42.670;23.316;2023-04-25T10:02:13;93610.81;;;17.61;71.33
9774;BME280;4926;42.670;23.316;2023-04-25T10:04:41;93621.78;;;17.53;73.79
9774;BME280;4926;42.670;23.316;2023-04-25T10:07:08;93620.03;;;17.45;74.91
9774;BME280;4926;42.670;23.316;2023-04-25T10:09:37;93625.50;;;17.14;75.09
9774;BME280;4926;42.670;23.316;2023-04-25T10:12:06;93625.72;;;16.90;74.83
9774;BME280;4926;42.670;23.316;2023-04-25T10:14:33;93668.69;;;16.58;77.04
9774;BME280;4926;42.670;23.316;2023-04-25T10:17:00;93652.50;;;16.27;72.08
9774;BME280;4926;42.670;23.316;2023-04-25T10:19:28;93649.81;;;16.00;72.99
9774;BME280;4926;42.670;23.316;2023-04-25T10:22:01;93637.44;;;15.55;71.90
9774;BME280;4926;42.670;23.316;2023-04-25T10:24:29;93628.34;;;15.72;73.06
9774;BME280;4926;42.670;23.316;2023-04-25T10:26:59;93606.09;;;16.42;71.09
9774;BME280;4926;42.670;23.316;2023-04-25T10:29:28;93597.03;;;17.28;68.47
9774;BME280;4926;42.670;23.316;2023-04-25T10:31:55;93579.13;;;18.12;64.99
9774;BME280;4926;42.670;23.316;2023-04-25T10:34:38;93557.06;;;19.23;60.93
9774;BME280;4926;42.670;23.316;2023-04-25T10:37:05;93530.22;;;19.60;56.91
9774;BME280;4926;42.670;23.316;2023-04-25T10:39:34;93526.44;;;20.01;53.65
9774;BME280;4926;42.670;23.316;2023-04-25T10:42:02;93529.88;;;20.35;54.28
9774;BME280;4926;42.670;23.316;2023-04-25T10:44:30;93521.47;;;20.43;52.20
9774;BME280;4926;42.670;23.316;2023-04-25T10:47:02;93522.09;;;19.93;53.14
9774;BME280;4926;42.670;23.316;2023-04-25T10:49:32;93548.22;;;19.49;55.41
9774;BME280;4926;42.670;23.316;2023-04-25T10:52:11;93549.34;;;18.96;57.22
9774;BME280;4926;42.670;23.316;2023-04-25T10:54:46;93557.34;;;18.88;57.60
9774;BME280;4926;42.670;23.316;2023-04-25T10:57:30;93536.72;;;18.73;56.52
9774;BME280;4926;42.670;23.316;2023-04-25T11:00:09;93549.97;;;18.59;54.60
9774;BME280;4926;42.670;23.316;2023-04-25T11:02:44;93539.00;;;18.07;54.57
9774;BME280;4926;42.670;23.316;2023-04-25T11:05:22;93539.25;;;18.21;55.35
9774;BME280;4926;42.670;23.316;2023-04-25T11:07:53;93520.91;;;18.98;52.96
9774;BME280;4926;42.670;23.316;2023-04-25T11:10:25;93508.19;;;19.58;50.11
9774;BME280;4926;42.670;23.316;2023-04-25T11:12:52;93489.59;;;19.49;48.67
9774;BME280;4926;42.670;23.316;2023-04-25T11:15:20;93509.00;;;19.03;49.71
9774;BME280;4926;42.670;23.316;2023-04-25T11:17:46;93505.47;;;18.72;50.11
9774;BME280;4926;42.670;23.316;2023-04-25T11:20:14;93513.03;;;18.63;50.70
9774;BME280;4926;42.670;23.316;2023-04-25T11:22:41;93510.19;;;18.79;51.03
9774;BME280;4926;42.670;23.316;2023-04-25T11:25:16;93511.53;;;18.66;50.73
9774;BME280;4926;42.670;23.316;2023-04-25T11:27:51;93528.88;;;18.42;51.83
9774;BME280;4926;42.670;23.316;2023-04-25T11:30:21;93532.91;;;18.10;52.55
9774;BME280;4926;42.670;23.316;2023-04-25T11:32:49;93538.91;;;17.81;53.65
9774;BME280;4926;42.670;23.316;2023-04-25T11:35:17;93539.31;;;17.45;54.59
9774;BME280;4926;42.670;23.316;2023-04-25T11:37:48;93558.22;;;17.29;55.65
9774;BME280;4926;42.670;23.316;2023-04-25T11:40:15;93560.97;;;17.14;56.60
9774;BME280;4926;42.670;23.316;2023-04-25T11:42:51;93581.13;;;16.89;58.64
9774;BME280;4926;42.670;23.316;2023-04-25T11:45:20;93597.00;;;16.78;59.61
9774;BME280;4926;42.670;23.316;2023-04-25T11:47:56;93602.78;;;16.33;61.00
9774;BME280;4926;42.670;23.316;2023-04-25T11:50:24;93617.25;;;16.01;64.19
9774;BME280;4926;42.670;23.316;2023-04-25T11:52:56;93615.69;;;15.85;66.43
9774;BME280;4926;42.670;23.316;2023-04-25T11:55:23;93624.09;;;15.71;69.03
9774;BME280;4926;42.670;23.316;2023-04-25T11:57:54;93627.13;;;15.18;73.06
9774;BME280;4926;42.670;23.316;2023-04-25T12:00:22;93638.72;;;15.22;79.42
9774;BME280;4926;42.670;23.316;2023-04-25T12:02:53;93644.09;;;15.10;83.38
9774;BME280;4926;42.670;23.316;2023-04-25T12:05:23;93637.38;;;15.16;83.92
9774;BME280;4926;42.670;23.316;2023-04-25T12:07:51;93629.09;;;15.45;81.26
9774;BME280;4926;42.670;23.316;2023-04-25T12:10:18;93611.25;;;15.25;72.88
9774;BME280;4926;42.670;23.316;2023-04-25T12:12:47;93612.56;;;15.19;73.41
9774;BME280;4926;42.670;23.316;2023-04-25T12:15:17;93609.88;;;15.31;73.78
9774;BME280;4926;42.670;23.316;2023-04-25T12:17:46;93606.34;;;14.91;73.55
9774;BME280;4926;42.670;23.316;2023-04-25T12:20:18;93612.16;;;15.05;73.21
9774;BME280;4926;42.670;23.316;2023-04-25T12:22:49;93604.81;;;14.78;74.73
9774;BME280;4926;42.670;23.316;2023-04-25T12:25:37;93595.84;;;14.98;74.40
9774;BME280;4926;42.670;23.316;2023-04-25T12:28:11;93599.41;;;15.14;76.50
9774;BME280;4926;42.670;23.316;2023-04-25T12:31:00;93609.84;;;15.55;75.12
9774;BME280;4926;42.670;23.316;2023-04-25T12:33:33;93621.44;;;15.99;73.72
9774;BME280;4926;42.670;23.316;2023-04-25T12:36:03;93626.03;;;16.14;72.14
9774;BME280;4926;42.670;23.316;2023-04-25T12:38:37;93645.31;;;15.88;74.36
9774;BME280;4926;42.670;23.316;2023-04-25T12:41:04;93667.13;;;15.75;76.82
9774;BME280;4926;42.670;23.316;2023-04-25T12:43:30;93689.13;;;15.40;79.65
9774;BME280;4926;42.670;23.316;2023-04-25T12:45:57;93700.81;;;15.12;83.59
9774;BME280;4926;42.670;23.316;2023-04-25T12:48:29;93692.66;;;14.84;85.92
9774;BME280;4926;42.670;23.316;2023-04-25T12:50:55;93701.28;;;14.90;89.86
9774;BME280;4926;42.670;23.316;2023-04-25T12:53:26;93703.72;;;14.95;91.48
9774;BME280;4926;42.670;23.316;2023-04-25T12:55:53;93711.53;;;14.76;93.92
9774;BME280;4926;42.670;23.316;2023-04-25T12:58:19;93706.06;;;14.72;95.31
9774;BME280;4926;42.670;23.316;2023-04-25T13:00:51;93714.03;;;14.48;96.00
9774;BME280;4926;42.670;23.316;2023-04-25T13:03:18;93714.91;;;14.40;98.01
9774;BME280;4926;42.670;23.316;2023-04-25T13:05:44;93714.34;;;14.34;99.93
9774;BME280;4926;42.670;23.316;2023-04-25T13:08:17;93713.59;;;14.25;100.00
9774;BME280;4926;42.670;23.316;2023-04-25T13:10:45;93684.38;;;14.20;100.00
9774;BME280;4926;42.670;23.316;2023-04-25T13:13:12;93679.66;;;14.17;100.00
9774;BME280;4926;42.670;23.316;2023-04-25T13:15:41;93665.69;;;14.12;100.00